createdAt,value
2022-12-01T00:00:25.402Z,4.06
2022-12-01T00:02:54.122Z,3.99
2022-12-01T00:05:20.642Z,3.84
2022-12-01T00:07:47.147Z,3.87
2022-12-01T00:10:13.675Z,3.99
2022-12-01T00:12:40.065Z,4.07
2022-12-01T00:15:06.515Z,4.16
2022-12-01T00:17:33.148Z,4.26
2022-12-01T00:19:59.751Z,4.30
2022-12-01T00:22:27.064Z,4.32
2022-12-01T00:24:53.400Z,4.34
2022-12-01T00:27:19.751Z,4.26
2022-12-01T00:29:46.460Z,4.36
2022-12-01T00:32:13.304Z,4.30
2022-12-01T00:34:40.079Z,4.29
2022-12-01T00:37:06.459Z,4.30
2022-12-01T00:39:32.809Z,4.26
2022-12-01T00:41:59.182Z,4.24
2022-12-01T00:44:25.642Z,4.14
2022-12-01T00:46:52.041Z,4.24
2022-12-01T00:49:20.660Z,4.25
2022-12-01T00:51:47.129Z,4.28
2022-12-01T00:54:13.605Z,4.35
2022-12-01T00:56:40.330Z,4.43
2022-12-01T00:59:06.815Z,4.45
2022-12-01T01:01:33.290Z,4.46
2022-12-01T01:03:59.788Z,4.48
2022-12-01T01:06:26.335Z,4.55
2022-12-01T01:08:52.684Z,4.52
2022-12-01T01:11:19.055Z,4.53
2022-12-01T01:13:45.409Z,4.55
2022-12-01T01:16:12.384Z,4.54
2022-12-01T01:18:39.043Z,4.59
2022-12-01T01:21:05.432Z,4.58
2022-12-01T01:23:31.885Z,4.63
2022-12-01T01:25:58.245Z,4.64
2022-12-01T01:28:24.624Z,4.63
2022-12-01T01:30:51.084Z,4.53
2022-12-01T01:33:20.013Z,4.51
2022-12-01T01:35:46.369Z,4.49
2022-12-01T01:38:12.829Z,4.39
2022-12-01T01:40:39.227Z,4.45
2022-12-01T01:43:06.131Z,4.48
2022-12-01T01:45:32.635Z,4.48
2022-12-01T01:47:59.024Z,4.47
2022-12-01T01:50:26.068Z,4.53
2022-12-01T01:52:52.453Z,4.55
2022-12-01T01:55:18.959Z,4.52
2022-12-01T01:57:45.431Z,4.48
2022-12-01T02:00:12.831Z,4.41
2022-12-01T02:02:39.218Z,4.45
2022-12-01T02:05:05.725Z,4.41
2022-12-01T02:07:32.219Z,4.43
2022-12-01T02:09:58.604Z,4.32
2022-12-01T02:12:25.819Z,4.35
2022-12-01T02:14:52.266Z,4.40
2022-12-01T02:17:21.430Z,4.35
2022-12-01T02:19:48.433Z,4.27
2022-12-01T02:22:15.076Z,4.32
2022-12-01T02:24:41.652Z,4.29
2022-12-01T02:27:08.016Z,4.18
2022-12-01T02:29:34.381Z,4.15
2022-12-01T02:32:00.763Z,4.12
2022-12-01T02:34:27.327Z,4.13
2022-12-01T02:36:53.819Z,4.22
2022-12-01T02:39:20.307Z,4.18
2022-12-01T02:41:46.643Z,4.20
2022-12-01T02:44:13.189Z,4.20
2022-12-01T02:46:40.110Z,4.27
2022-12-01T02:49:06.608Z,4.26
2022-12-01T02:51:33.166Z,4.25
2022-12-01T02:53:59.550Z,4.35
2022-12-01T02:56:26.320Z,4.37
2022-12-01T02:58:52.702Z,4.36
2022-12-01T03:01:19.161Z,4.42
2022-12-01T03:03:45.773Z,4.43
2022-12-01T03:06:12.111Z,4.41
2022-12-01T03:08:41.092Z,4.38
2022-12-01T03:11:07.474Z,4.35
2022-12-01T03:13:33.854Z,4.24
2022-12-01T03:16:00.348Z,4.26
2022-12-01T03:18:29.266Z,4.34
2022-12-01T03:20:56.011Z,4.22
2022-12-01T03:23:24.471Z,4.25
2022-12-01T03:25:50.812Z,4.31
2022-12-01T03:28:21.890Z,4.37
2022-12-01T03:30:48.961Z,4.42
2022-12-01T03:33:15.565Z,4.38
2022-12-01T03:35:41.959Z,4.40
2022-12-01T03:38:08.529Z,4.45
2022-12-01T03:40:35.392Z,4.43
2022-12-01T03:43:01.783Z,4.35
2022-12-01T03:45:28.159Z,4.29
2022-12-01T03:47:54.571Z,4.23
2022-12-01T03:50:20.972Z,4.27
2022-12-01T03:52:47.360Z,4.32
2022-12-01T03:55:14.844Z,4.31
2022-12-01T03:57:41.307Z,4.36
2022-12-01T04:00:07.708Z,4.31
2022-12-01T04:02:36.820Z,4.22
2022-12-01T04:05:03.307Z,4.28
2022-12-01T04:07:29.724Z,4.19
2022-12-01T04:09:56.158Z,4.12
2022-12-01T04:12:22.769Z,4.10
2022-12-01T04:14:49.215Z,4.04
2022-12-01T04:17:16.153Z,4.11
2022-12-01T04:19:42.498Z,4.12
2022-12-01T04:22:09.117Z,4.11
2022-12-01T04:24:35.460Z,4.12
2022-12-01T04:27:01.898Z,4.18
2022-12-01T04:29:28.255Z,4.10
2022-12-01T04:31:54.671Z,4.01
2022-12-01T04:34:21.241Z,4.09
2022-12-01T04:36:48.639Z,4.00
2022-12-01T04:39:15.004Z,4.10
2022-12-01T04:41:41.542Z,4.19
2022-12-01T04:44:08.108Z,4.18
2022-12-01T04:46:34.542Z,4.22
2022-12-01T04:49:01.186Z,4.23
2022-12-01T04:51:27.643Z,4.29
2022-12-01T04:53:57.353Z,4.25
2022-12-01T04:56:31.210Z,4.24
2022-12-01T04:58:57.798Z,4.16
2022-12-01T05:01:24.273Z,4.19
2022-12-01T05:03:50.752Z,4.25
2022-12-01T05:06:17.086Z,4.26
2022-12-01T05:08:43.470Z,4.13
2022-12-01T05:11:09.935Z,4.13
2022-12-01T05:13:36.410Z,4.17
2022-12-01T05:16:02.818Z,4.10
2022-12-01T05:18:29.331Z,4.12
2022-12-01T05:20:55.887Z,3.89
2022-12-01T05:23:22.266Z,3.93
2022-12-01T05:25:49.299Z,3.85
2022-12-01T05:28:15.850Z,3.84
2022-12-01T05:30:42.249Z,3.62
2022-12-01T05:33:09.647Z,3.76
2022-12-01T05:35:36.358Z,3.70
2022-12-01T05:38:07.520Z,3.73
2022-12-01T05:40:34.570Z,3.85
2022-12-01T05:43:00.920Z,3.95
2022-12-01T05:45:27.528Z,3.94
2022-12-01T05:47:55.066Z,3.97
2022-12-01T05:50:22.252Z,3.99
2022-12-01T05:52:48.678Z,3.89
2022-12-01T05:55:15.126Z,3.94
2022-12-01T05:57:41.519Z,3.92
2022-12-01T06:00:09.274Z,3.89
2022-12-01T06:02:36.106Z,3.95
2022-12-01T06:05:02.508Z,3.97
2022-12-01T06:07:28.958Z,3.92
2022-12-01T06:09:56.386Z,3.98
2022-12-01T06:12:23.247Z,4.00
2022-12-01T06:14:49.802Z,4.01
2022-12-01T06:17:18.207Z,4.04
2022-12-01T06:19:44.546Z,4.06
2022-12-01T06:22:10.929Z,4.08
2022-12-01T06:24:37.323Z,4.10
2022-12-01T06:27:03.959Z,4.13
2022-12-01T06:29:30.361Z,4.15
2022-12-01T06:31:56.772Z,4.17
2022-12-01T06:34:23.359Z,4.20
2022-12-01T06:36:49.755Z,4.20
2022-12-01T06:39:16.197Z,4.19
2022-12-01T06:41:42.528Z,4.18
2022-12-01T06:44:08.873Z,4.24
2022-12-01T06:46:35.362Z,4.27
2022-12-01T06:49:02.896Z,4.27
2022-12-01T06:51:29.689Z,4.27
2022-12-01T06:53:58.640Z,4.26
2022-12-01T06:56:28.600Z,4.21
2022-12-01T06:58:55.222Z,4.23
2022-12-01T07:01:21.840Z,4.19
2022-12-01T07:03:48.375Z,4.25
2022-12-01T07:06:14.849Z,4.27
2022-12-01T07:08:41.433Z,4.23
2022-12-01T07:11:08.045Z,4.23
2022-12-01T07:13:34.381Z,4.25
2022-12-01T07:16:01.945Z,4.24
2022-12-01T07:18:28.378Z,4.28
2022-12-01T07:20:54.873Z,4.28
2022-12-01T07:23:21.280Z,4.20
2022-12-01T07:25:48.003Z,4.12
2022-12-01T07:28:14.410Z,4.04
2022-12-01T07:30:40.921Z,4.05
2022-12-01T07:33:08.281Z,4.11
2022-12-01T07:35:34.881Z,4.11
2022-12-01T07:38:01.500Z,4.12
2022-12-01T07:40:27.954Z,4.09
2022-12-01T07:42:54.503Z,4.06
2022-12-01T07:45:21.190Z,4.01
2022-12-01T07:47:47.692Z,4.09
2022-12-01T07:50:16.092Z,3.99
2022-12-01T07:52:42.435Z,4.00
2022-12-01T07:55:08.886Z,3.87
2022-12-01T07:57:35.270Z,3.92
2022-12-01T08:00:01.701Z,3.99
2022-12-01T08:02:30.597Z,3.92
2022-12-01T08:04:57.059Z,3.85
2022-12-01T08:07:27.160Z,3.76
2022-12-01T08:09:55.967Z,3.65
2022-12-01T08:12:24.617Z,3.61
2022-12-01T08:14:51.385Z,3.56
2022-12-01T08:17:18.090Z,3.55
2022-12-01T08:19:44.479Z,3.60
2022-12-01T08:22:13.425Z,3.59
2022-12-01T08:24:39.810Z,3.56
2022-12-01T08:27:06.376Z,3.67
2022-12-01T08:29:32.711Z,3.70
2022-12-01T08:32:01.494Z,3.72
2022-12-01T08:34:27.955Z,3.74
2022-12-01T08:36:54.568Z,3.68
2022-12-01T08:39:21.429Z,3.67
2022-12-01T08:41:47.985Z,3.87
2022-12-01T08:44:15.452Z,4.03
2022-12-01T08:46:42.026Z,4.14
2022-12-01T08:49:08.788Z,4.07
2022-12-01T08:51:36.216Z,4.01
2022-12-01T08:54:03.772Z,4.00
2022-12-01T08:56:31.455Z,3.99
2022-12-01T08:58:58.972Z,4.02
2022-12-01T09:01:25.539Z,4.14
2022-12-01T09:03:52.222Z,4.23
2022-12-01T09:06:18.680Z,4.39
2022-12-01T09:08:45.185Z,4.47
2022-12-01T09:11:11.624Z,4.55
2022-12-01T09:13:40.730Z,4.64
2022-12-01T09:16:07.172Z,4.71
2022-12-01T09:18:34.024Z,4.75
2022-12-01T09:21:01.946Z,4.68
2022-12-01T09:23:29.765Z,4.72
2022-12-01T09:25:56.218Z,4.59
2022-12-01T09:28:23.721Z,4.38
2022-12-01T09:30:50.116Z,4.42
2022-12-01T09:33:16.559Z,4.58
2022-12-01T09:35:42.957Z,4.54
2022-12-01T09:38:09.345Z,4.58
2022-12-01T09:40:35.741Z,4.65
2022-12-01T09:43:02.148Z,4.51
2022-12-01T09:45:28.594Z,4.52
2022-12-01T09:47:54.979Z,4.48
2022-12-01T09:50:21.536Z,4.47
2022-12-01T09:52:47.911Z,4.37
2022-12-01T09:55:14.323Z,4.60
2022-12-01T09:57:40.725Z,4.69
2022-12-01T10:00:07.183Z,4.80
2022-12-01T10:02:33.744Z,4.83
2022-12-01T10:05:00.255Z,4.92
2022-12-01T10:07:26.818Z,4.94
2022-12-01T10:09:53.446Z,4.83
2022-12-01T10:12:19.884Z,4.77
2022-12-01T10:14:48.454Z,4.94
2022-12-01T10:17:14.870Z,5.10
2022-12-01T10:19:42.404Z,5.19
2022-12-01T10:22:10.092Z,5.22
2022-12-01T10:24:36.651Z,5.20
2022-12-01T10:27:08.330Z,5.24
2022-12-01T10:29:34.779Z,5.27
2022-12-01T10:32:02.362Z,5.23
2022-12-01T10:34:31.847Z,5.29
2022-12-01T10:36:58.546Z,5.22
2022-12-01T10:39:32.065Z,5.12
2022-12-01T10:41:58.454Z,5.15
2022-12-01T10:44:25.065Z,5.24
2022-12-01T10:46:51.560Z,5.22
2022-12-01T10:49:17.972Z,5.13
2022-12-01T10:51:44.348Z,5.25
2022-12-01T10:54:10.803Z,4.91
2022-12-01T10:56:37.189Z,4.88
2022-12-01T10:59:03.548Z,4.92
2022-12-01T11:01:30.049Z,4.71
2022-12-01T11:03:56.745Z,4.84
2022-12-01T11:06:24.147Z,4.93
2022-12-01T11:08:52.778Z,4.68
2022-12-01T11:11:19.239Z,4.56
2022-12-01T11:13:45.607Z,4.66
2022-12-01T11:16:12.042Z,4.71
2022-12-01T11:18:38.980Z,4.73
2022-12-01T11:21:06.225Z,4.86
2022-12-01T11:23:32.559Z,4.79
2022-12-01T11:25:58.932Z,4.69
2022-12-01T11:28:25.628Z,4.79
2022-12-01T11:30:56.497Z,4.75
2022-12-01T11:33:23.069Z,4.89
2022-12-01T11:35:49.642Z,5.01
2022-12-01T11:38:31.314Z,4.78
2022-12-01T11:40:57.822Z,4.86
2022-12-01T11:43:24.244Z,4.87
2022-12-01T11:45:50.838Z,4.92
2022-12-01T11:48:17.241Z,5.05
2022-12-01T11:50:43.812Z,4.96
2022-12-01T11:53:12.480Z,5.01
2022-12-01T11:55:38.869Z,5.10
2022-12-01T11:58:05.336Z,5.24
2022-12-01T12:00:31.847Z,5.25
2022-12-01T12:02:58.461Z,5.05
2022-12-01T12:05:24.964Z,5.22
2022-12-01T12:07:51.583Z,5.24
2022-12-01T12:10:18.164Z,4.89
2022-12-01T12:12:44.582Z,4.89
2022-12-01T12:15:10.967Z,4.88
2022-12-01T12:17:37.437Z,4.67
2022-12-01T12:20:08.455Z,4.82
2022-12-01T12:22:36.489Z,4.78
2022-12-01T12:25:05.451Z,4.89
2022-12-01T12:27:31.850Z,4.73
2022-12-01T12:29:58.207Z,4.78
2022-12-01T12:32:24.592Z,4.96
2022-12-01T12:34:50.940Z,4.90
2022-12-01T12:37:17.662Z,4.84
2022-12-01T12:39:44.014Z,4.99
2022-12-01T12:42:10.461Z,5.11
2022-12-01T12:44:37.717Z,5.17
2022-12-01T12:47:05.497Z,5.15
2022-12-01T12:49:36.243Z,5.00
2022-12-01T12:52:08.086Z,4.90
2022-12-01T12:54:35.071Z,5.03
2022-12-01T12:57:01.526Z,5.05
2022-12-01T12:59:27.867Z,5.05
2022-12-01T13:01:54.331Z,5.11
2022-12-01T13:04:23.837Z,5.19
2022-12-01T13:06:50.237Z,5.28
2022-12-01T13:09:16.626Z,5.23
2022-12-01T13:11:43.197Z,5.22
2022-12-01T13:14:09.563Z,5.13
2022-12-01T13:16:35.912Z,5.17
2022-12-01T13:19:03.339Z,5.13
2022-12-01T13:21:29.788Z,5.14
2022-12-01T13:23:56.303Z,5.22
2022-12-01T13:26:22.693Z,5.26
2022-12-01T13:28:49.096Z,5.33
2022-12-01T13:31:15.462Z,5.26
2022-12-01T13:33:41.925Z,5.12
2022-12-01T13:36:44.602Z,5.14
2022-12-01T13:38:54.675Z,5.13
2022-12-01T13:41:21.349Z,5.08
2022-12-01T13:43:47.734Z,5.00
2022-12-01T13:46:14.235Z,4.91
2022-12-01T13:48:40.710Z,4.86
2022-12-01T13:51:07.081Z,4.86
2022-12-01T13:53:33.477Z,4.85
2022-12-01T13:55:59.898Z,4.91
2022-12-01T13:58:27.465Z,4.89
2022-12-01T14:00:53.915Z,4.97
2022-12-01T14:03:20.424Z,5.01
2022-12-01T14:05:46.923Z,4.87
2022-12-01T14:08:15.953Z,4.86
2022-12-01T14:10:44.616Z,4.81
2022-12-01T14:13:11.200Z,4.87
2022-12-01T14:15:37.593Z,4.71
2022-12-01T14:18:03.990Z,4.71
2022-12-01T14:20:30.414Z,4.81
2022-12-01T14:22:56.798Z,4.78
2022-12-01T14:25:23.251Z,4.85
2022-12-01T14:27:49.790Z,4.88
2022-12-01T14:30:16.155Z,4.86
2022-12-01T14:32:42.543Z,4.92
2022-12-01T14:35:09.310Z,4.96
2022-12-01T14:37:35.776Z,4.88
2022-12-01T14:40:02.169Z,4.83
2022-12-01T14:42:28.572Z,4.85
2022-12-01T14:44:54.980Z,4.84
2022-12-01T14:47:25.163Z,4.84
2022-12-01T14:49:51.799Z,4.85
2022-12-01T14:52:18.148Z,4.67
2022-12-01T14:54:45.632Z,4.71
2022-12-01T14:57:16.563Z,4.57
2022-12-01T14:59:43.977Z,4.53
2022-12-01T15:02:10.659Z,4.61
2022-12-01T15:04:37.309Z,4.62
2022-12-01T15:07:03.806Z,4.64
2022-12-01T15:09:34.926Z,4.61
2022-12-01T15:12:02.130Z,4.67
2022-12-01T15:14:28.613Z,4.60
2022-12-01T15:16:56.237Z,4.68
2022-12-01T15:19:22.973Z,4.53
2022-12-01T15:21:49.361Z,4.55
2022-12-01T15:24:15.743Z,4.53
2022-12-01T15:26:42.091Z,4.54
2022-12-01T15:29:08.446Z,4.56
2022-12-01T15:31:34.878Z,4.43
2022-12-01T15:34:01.685Z,4.22
2022-12-01T15:36:28.134Z,4.26
2022-12-01T15:38:54.895Z,4.14
2022-12-01T15:41:28.921Z,4.16
2022-12-01T15:43:55.935Z,4.22
2022-12-01T15:46:22.329Z,4.20
2022-12-01T15:48:48.816Z,4.16
2022-12-01T15:51:15.237Z,4.19
2022-12-01T15:53:41.679Z,4.24
2022-12-01T15:56:08.256Z,4.31
2022-12-01T15:58:36.062Z,4.35
2022-12-01T16:01:02.604Z,4.36
2022-12-01T16:03:29.053Z,4.40
2022-12-01T16:05:56.270Z,4.40
2022-12-01T16:08:22.888Z,4.44
2022-12-01T16:10:49.301Z,4.40
2022-12-01T16:13:15.678Z,4.24
2022-12-01T16:15:42.310Z,4.27
2022-12-01T16:18:08.649Z,4.32
2022-12-01T16:20:35.251Z,4.30
2022-12-01T16:23:01.630Z,4.36
2022-12-01T16:25:28.020Z,4.20
2022-12-01T16:27:54.584Z,4.20
2022-12-01T16:30:21.987Z,4.13
2022-12-01T16:32:49.300Z,4.14
2022-12-01T16:35:15.727Z,4.22
2022-12-01T16:37:44.961Z,4.28
2022-12-01T16:40:12.996Z,4.29
2022-12-01T16:42:41.945Z,4.31
2022-12-01T16:45:08.391Z,4.25
2022-12-01T16:47:34.788Z,4.23
2022-12-01T16:50:01.293Z,4.11
2022-12-01T16:52:44.537Z,4.19
2022-12-01T16:55:11.455Z,4.18
2022-12-01T16:57:37.883Z,4.24
2022-12-01T17:00:04.364Z,4.24
2022-12-01T17:02:30.931Z,4.26
2022-12-01T17:04:57.327Z,4.16
2022-12-01T17:07:23.692Z,4.22
2022-12-01T17:09:50.092Z,4.30
2022-12-01T17:12:18.477Z,4.34
2022-12-01T17:14:47.061Z,4.35
2022-12-01T17:17:13.660Z,4.24
2022-12-01T17:19:39.997Z,4.24
2022-12-01T17:22:07.354Z,4.23
2022-12-01T17:24:33.817Z,4.19
2022-12-01T17:27:00.172Z,4.21
2022-12-01T17:29:26.526Z,4.22
2022-12-01T17:31:52.872Z,4.28
2022-12-01T17:34:19.340Z,4.36
2022-12-01T17:36:46.590Z,4.39
2022-12-01T17:39:20.302Z,4.35
2022-12-01T17:41:46.645Z,4.30
2022-12-01T17:44:13.054Z,4.17
2022-12-01T17:46:41.407Z,4.24
2022-12-01T17:49:07.853Z,4.30
2022-12-01T17:51:37.008Z,4.23
2022-12-01T17:54:03.469Z,4.27
2022-12-01T17:56:29.816Z,4.32
2022-12-01T17:58:56.193Z,4.35
2022-12-01T18:01:26.940Z,4.34
2022-12-01T18:03:57.328Z,4.37
2022-12-01T18:06:24.301Z,4.32
2022-12-01T18:08:51.646Z,4.28
2022-12-01T18:11:18.034Z,4.29
2022-12-01T18:13:45.148Z,4.35
2022-12-01T18:16:11.553Z,4.38
2022-12-01T18:18:38.363Z,4.43
2022-12-01T18:21:04.951Z,4.41
2022-12-01T18:23:31.325Z,4.40
2022-12-01T18:25:57.886Z,4.46
2022-12-01T18:28:25.484Z,4.45
2022-12-01T18:30:51.871Z,4.48
2022-12-01T18:33:18.358Z,4.40
2022-12-01T18:35:44.795Z,4.44
2022-12-01T18:38:11.881Z,4.43
2022-12-01T18:40:40.572Z,4.45
2022-12-01T18:43:07.148Z,4.46
2022-12-01T18:45:33.554Z,4.48
2022-12-01T18:47:59.919Z,4.45
2022-12-01T18:50:26.419Z,4.45
2022-12-01T18:52:52.897Z,4.36
2022-12-01T18:55:19.262Z,4.35
2022-12-01T18:57:45.814Z,4.33
2022-12-01T19:00:12.194Z,4.28
2022-12-01T19:02:38.589Z,4.33
2022-12-01T19:05:05.019Z,4.29
2022-12-01T19:07:31.395Z,4.34
2022-12-01T19:09:57.811Z,4.31
2022-12-01T19:12:24.226Z,4.24
2022-12-01T19:14:50.835Z,4.27
2022-12-01T19:17:17.550Z,4.33
2022-12-01T19:19:43.893Z,4.35
2022-12-01T19:22:10.454Z,4.33
2022-12-01T19:24:36.820Z,4.28
2022-12-01T19:27:03.214Z,4.31
2022-12-01T19:29:29.609Z,4.31
2022-12-01T19:31:56.208Z,4.25
2022-12-01T19:34:22.875Z,4.19
2022-12-01T19:36:49.324Z,4.19
2022-12-01T19:39:15.707Z,4.20
2022-12-01T19:41:42.292Z,4.26
2022-12-01T19:44:09.768Z,4.30
2022-12-01T19:46:36.178Z,4.27
2022-12-01T19:49:02.632Z,4.14
2022-12-01T19:51:29.028Z,4.13
2022-12-01T19:53:55.557Z,4.13
2022-12-01T19:56:22.031Z,4.10
2022-12-01T19:58:48.810Z,4.10
2022-12-01T20:01:15.438Z,4.14
2022-12-01T20:03:41.929Z,4.17
2022-12-01T20:06:08.444Z,4.20
2022-12-01T20:08:36.128Z,4.22
2022-12-01T20:11:03.100Z,4.15
2022-12-01T20:13:29.486Z,4.14
2022-12-01T20:15:56.074Z,4.16
2022-12-01T20:18:22.454Z,4.10
2022-12-01T20:20:49.022Z,4.08
2022-12-01T20:23:15.651Z,4.08
2022-12-01T20:25:42.383Z,4.14
2022-12-01T20:28:08.981Z,4.17
2022-12-01T20:30:35.383Z,4.17
2022-12-01T20:33:01.765Z,4.17
2022-12-01T20:35:28.277Z,4.20
2022-12-01T20:37:54.763Z,4.09
2022-12-01T20:40:22.564Z,4.08
2022-12-01T20:42:49.044Z,4.10
2022-12-01T20:45:15.510Z,4.14
2022-12-01T20:47:41.921Z,4.12
2022-12-01T20:50:08.379Z,4.01
2022-12-01T20:52:34.833Z,4.00
2022-12-01T20:55:03.224Z,4.04
2022-12-01T20:57:29.620Z,4.04
2022-12-01T20:59:56.037Z,3.95
2022-12-01T21:02:22.843Z,3.93
2022-12-01T21:04:49.733Z,3.96
2022-12-01T21:07:16.309Z,4.03
2022-12-01T21:09:44.955Z,4.04
2022-12-01T21:12:11.584Z,4.08
2022-12-01T21:14:38.439Z,4.15
2022-12-01T21:17:13.125Z,4.16
2022-12-01T21:19:41.555Z,4.18
2022-12-01T21:22:07.895Z,4.19
2022-12-01T21:24:42.038Z,4.23
2022-12-01T21:27:11.071Z,4.24
2022-12-01T21:29:37.447Z,4.20
2022-12-01T21:32:03.785Z,4.15
2022-12-01T21:34:30.163Z,4.16
2022-12-01T21:36:56.762Z,4.10
2022-12-01T21:39:30.718Z,4.06
2022-12-01T21:42:02.032Z,4.08
2022-12-01T21:44:28.780Z,4.12
2022-12-01T21:46:55.367Z,4.10
2022-12-01T21:49:22.363Z,4.08
2022-12-01T21:51:49.373Z,4.04
2022-12-01T21:54:15.867Z,4.05
2022-12-01T21:56:45.131Z,4.05
2022-12-01T21:59:14.629Z,4.04
2022-12-01T22:01:41.471Z,4.04
2022-12-01T22:04:10.155Z,4.01
2022-12-01T22:06:38.556Z,4.04
2022-12-01T22:09:09.418Z,4.09
2022-12-01T22:11:35.811Z,4.09
2022-12-01T22:14:02.270Z,4.05
2022-12-01T22:16:28.979Z,4.11
2022-12-01T22:18:57.099Z,4.12
2022-12-01T22:21:25.538Z,4.12
2022-12-01T22:23:51.933Z,4.16
2022-12-01T22:26:18.326Z,4.14
2022-12-01T22:28:49.988Z,4.17
2022-12-01T22:31:23.705Z,4.07
2022-12-01T22:33:51.786Z,4.07
2022-12-01T22:36:19.262Z,4.03
2022-12-01T22:38:45.648Z,4.07
2022-12-01T22:41:12.018Z,4.09
2022-12-01T22:43:38.377Z,4.08
2022-12-01T22:46:04.799Z,4.15
2022-12-01T22:48:31.254Z,4.19
2022-12-01T22:50:57.636Z,4.23
2022-12-01T22:53:23.984Z,4.25
2022-12-01T22:55:50.322Z,4.27
2022-12-01T22:58:16.998Z,4.25
2022-12-01T23:00:44.414Z,4.22
2022-12-01T23:03:10.808Z,4.22
2022-12-01T23:05:37.328Z,4.23
2022-12-01T23:08:03.917Z,4.21
2022-12-01T23:10:30.535Z,4.21
2022-12-01T23:12:56.980Z,4.24
2022-12-01T23:15:23.343Z,4.26
2022-12-01T23:17:49.832Z,4.28
2022-12-01T23:20:16.179Z,4.23
2022-12-01T23:22:42.814Z,4.22
2022-12-01T23:25:09.191Z,4.19
2022-12-01T23:27:35.541Z,4.20
2022-12-01T23:30:03.403Z,4.23
2022-12-01T23:32:29.733Z,4.19
2022-12-01T23:35:00.198Z,4.14
2022-12-01T23:37:26.851Z,4.20
2022-12-01T23:39:55.498Z,4.26
2022-12-01T23:42:21.885Z,4.26
2022-12-01T23:44:48.487Z,4.30
2022-12-01T23:47:15.050Z,4.27
2022-12-01T23:49:41.455Z,4.25
2022-12-01T23:52:08.004Z,4.27
2022-12-01T23:54:34.546Z,4.23
2022-12-01T23:57:00.928Z,4.15
2022-12-01T23:59:27.539Z,4.17
